sensor_id;sensor_type;location;lat;lon;timestamp;P1;durP1;ratioP1;P2;durP2;ratioP2
74158;SDS011;62511;47.970;11.774;2022-08-07T00:01:05;13.45;;;8.02;;
74158;SDS011;62511;47.970;11.774;2022-08-07T00:03:32;12.13;;;7.10;;
74158;SDS011;62511;47.970;11.774;2022-08-07T00:05:58;13.18;;;7.47;;
74158;SDS011;62511;47.970;11.774;2022-08-07T00:08:24;12.68;;;6.80;;
74158;SDS011;62511;47.970;11.774;2022-08-07T00:10:50;13.52;;;7.25;;
74158;SDS011;62511;47.970;11.774;2022-08-07T00:13:17;12.73;;;6.65;;
74158;SDS011;62511;47.970;11.774;2022-08-07T00:18:10;10.00;;;5.97;;
74158;SDS011;62511;47.970;11.774;2022-08-07T00:20:36;10.43;;;6.18;;
74158;SDS011;62511;47.970;11.774;2022-08-07T00:23:03;11.13;;;6.78;;
74158;SDS011;62511;47.970;11.774;2022-08-07T00:25:32;12.60;;;7.03;;
74158;SDS011;62511;47.970;11.774;2022-08-07T00:27:58;9.90;;;6.65;;
74158;SDS011;62511;47.970;11.774;2022-08-07T00:30:25;12.80;;;7.18;;
74158;SDS011;62511;47.970;11.774;2022-08-07T00:32:51;11.45;;;5.97;;
74158;SDS011;62511;47.970;11.774;2022-08-07T00:35:18;12.93;;;6.50;;
74158;SDS011;62511;47.970;11.774;2022-08-07T00:37:44;11.18;;;5.93;;
74158;SDS011;62511;47.970;11.774;2022-08-07T00:40:11;8.40;;;5.40;;
74158;SDS011;62511;47.970;11.774;2022-08-07T00:42:39;10.10;;;5.50;;
74158;SDS011;62511;47.970;11.774;2022-08-07T00:45:06;10.55;;;5.97;;
74158;SDS011;62511;47.970;11.774;2022-08-07T00:47:33;9.70;;;5.15;;
74158;SDS011;62511;47.970;11.774;2022-08-07T00:49:59;10.23;;;5.55;;
74158;SDS011;62511;47.970;11.774;2022-08-07T00:52:25;9.05;;;5.25;;
74158;SDS011;62511;47.970;11.774;2022-08-07T00:54:51;9.63;;;5.80;;
74158;SDS011;62511;47.970;11.774;2022-08-07T00:57:17;12.32;;;6.25;;
74158;SDS011;62511;47.970;11.774;2022-08-07T00:59:43;9.48;;;5.45;;
74158;SDS011;62511;47.970;11.774;2022-08-07T01:02:10;8.57;;;5.50;;
74158;SDS011;62511;47.970;11.774;2022-08-07T01:04:36;7.75;;;4.97;;
74158;SDS011;62511;47.970;11.774;2022-08-07T01:07:03;8.40;;;5.03;;
74158;SDS011;62511;47.970;11.774;2022-08-07T01:09:29;8.23;;;5.15;;
74158;SDS011;62511;47.970;11.774;2022-08-07T01:11:55;9.57;;;5.07;;
74158;SDS011;62511;47.970;11.774;2022-08-07T01:14:22;6.65;;;4.75;;
74158;SDS011;62511;47.970;11.774;2022-08-07T01:16:48;7.65;;;4.93;;
74158;SDS011;62511;47.970;11.774;2022-08-07T01:19:15;7.30;;;4.32;;
74158;SDS011;62511;47.970;11.774;2022-08-07T01:24:07;6.45;;;4.25;;
74158;SDS011;62511;47.970;11.774;2022-08-07T01:26:33;5.90;;;4.20;;
74158;SDS011;62511;47.970;11.774;2022-08-07T01:29:00;7.95;;;4.68;;
74158;SDS011;62511;47.970;11.774;2022-08-07T01:31:26;5.60;;;4.40;;
74158;SDS011;62511;47.970;11.774;2022-08-07T01:33:56;6.07;;;4.18;;
74158;SDS011;62511;47.970;11.774;2022-08-07T01:36:23;8.25;;;4.68;;
74158;SDS011;62511;47.970;11.774;2022-08-07T01:38:49;7.78;;;4.53;;
74158;SDS011;62511;47.970;11.774;2022-08-07T01:41:15;9.30;;;4.95;;
74158;SDS011;62511;47.970;11.774;2022-08-07T01:43:43;6.53;;;4.28;;
74158;SDS011;62511;47.970;11.774;2022-08-07T01:46:09;7.95;;;4.15;;
74158;SDS011;62511;47.970;11.774;2022-08-07T01:48:36;6.80;;;3.90;;
74158;SDS011;62511;47.970;11.774;2022-08-07T01:51:06;6.72;;;4.13;;
74158;SDS011;62511;47.970;11.774;2022-08-07T01:53:33;7.68;;;4.80;;
74158;SDS011;62511;47.970;11.774;2022-08-07T01:56:23;5.75;;;3.78;;
74158;SDS011;62511;47.970;11.774;2022-08-07T01:58:47;6.22;;;4.25;;
74158;SDS011;62511;47.970;11.774;2022-08-07T02:01:16;6.82;;;4.40;;
74158;SDS011;62511;47.970;11.774;2022-08-07T02:03:46;7.53;;;4.18;;
74158;SDS011;62511;47.970;11.774;2022-08-07T02:06:14;5.82;;;3.90;;
74158;SDS011;62511;47.970;11.774;2022-08-07T02:13:33;9.15;;;3.88;;
74158;SDS011;62511;47.970;11.774;2022-08-07T02:16:02;6.50;;;3.53;;
74158;SDS011;62511;47.970;11.774;2022-08-07T02:18:30;5.85;;;3.70;;
74158;SDS011;62511;47.970;11.774;2022-08-07T02:20:58;6.07;;;3.75;;
74158;SDS011;62511;47.970;11.774;2022-08-07T02:23:24;6.25;;;3.88;;
74158;SDS011;62511;47.970;11.774;2022-08-07T02:25:52;5.82;;;4.03;;
74158;SDS011;62511;47.970;11.774;2022-08-07T02:28:19;5.07;;;3.60;;
74158;SDS011;62511;47.970;11.774;2022-08-07T02:30:46;4.82;;;4.00;;
74158;SDS011;62511;47.970;11.774;2022-08-07T02:33:13;5.13;;;3.53;;
74158;SDS011;62511;47.970;11.774;2022-08-07T02:35:41;4.97;;;3.00;;
74158;SDS011;62511;47.970;11.774;2022-08-07T02:38:08;4.43;;;3.30;;
74158;SDS011;62511;47.970;11.774;2022-08-07T02:40:35;4.72;;;3.53;;
74158;SDS011;62511;47.970;11.774;2022-08-07T02:43:02;4.72;;;3.70;;
74158;SDS011;62511;47.970;11.774;2022-08-07T02:45:30;9.02;;;3.83;;
74158;SDS011;62511;47.970;11.774;2022-08-07T02:47:56;4.63;;;3.28;;
74158;SDS011;62511;47.970;11.774;2022-08-07T02:50:22;5.95;;;3.60;;
74158;SDS011;62511;47.970;11.774;2022-08-07T02:53:02;6.10;;;3.75;;
74158;SDS011;62511;47.970;11.774;2022-08-07T02:55:29;4.05;;;3.38;;
74158;SDS011;62511;47.970;11.774;2022-08-07T02:57:57;5.90;;;3.53;;
74158;SDS011;62511;47.970;11.774;2022-08-07T03:00:27;7.32;;;3.95;;
74158;SDS011;62511;47.970;11.774;2022-08-07T03:05:20;5.30;;;4.15;;
74158;SDS011;62511;47.970;11.774;2022-08-07T03:07:46;7.53;;;4.30;;
74158;SDS011;62511;47.970;11.774;2022-08-07T03:10:13;7.25;;;4.47;;
74158;SDS011;62511;47.970;11.774;2022-08-07T03:12:40;7.68;;;4.22;;
74158;SDS011;62511;47.970;11.774;2022-08-07T03:15:07;6.68;;;4.10;;
74158;SDS011;62511;47.970;11.774;2022-08-07T03:17:34;5.45;;;3.80;;
74158;SDS011;62511;47.970;11.774;2022-08-07T03:20:01;8.52;;;4.65;;
74158;SDS011;62511;47.970;11.774;2022-08-07T03:22:27;5.63;;;4.15;;
74158;SDS011;62511;47.970;11.774;2022-08-07T03:24:54;5.82;;;4.20;;
74158;SDS011;62511;47.970;11.774;2022-08-07T03:27:21;6.47;;;4.35;;
74158;SDS011;62511;47.970;11.774;2022-08-07T03:29:48;10.13;;;4.32;;
74158;SDS011;62511;47.970;11.774;2022-08-07T03:32:16;5.78;;;3.85;;
74158;SDS011;62511;47.970;11.774;2022-08-07T03:34:43;5.22;;;3.70;;
74158;SDS011;62511;47.970;11.774;2022-08-07T03:37:10;6.05;;;3.85;;
74158;SDS011;62511;47.970;11.774;2022-08-07T03:39:36;5.38;;;3.45;;
74158;SDS011;62511;47.970;11.774;2022-08-07T03:42:03;5.63;;;3.65;;
74158;SDS011;62511;47.970;11.774;2022-08-07T03:44:29;4.60;;;3.20;;
74158;SDS011;62511;47.970;11.774;2022-08-07T03:46:56;4.00;;;3.60;;
74158;SDS011;62511;47.970;11.774;2022-08-07T03:49:22;3.55;;;3.00;;
74158;SDS011;62511;47.970;11.774;2022-08-07T03:51:48;5.65;;;2.95;;
74158;SDS011;62511;47.970;11.774;2022-08-07T03:56:41;4.30;;;2.70;;
74158;SDS011;62511;47.970;11.774;2022-08-07T03:59:08;3.97;;;2.72;;
74158;SDS011;62511;47.970;11.774;2022-08-07T04:01:38;4.30;;;2.90;;
74158;SDS011;62511;47.970;11.774;2022-08-07T04:04:06;4.15;;;2.70;;
74158;SDS011;62511;47.970;11.774;2022-08-07T04:09:00;3.45;;;2.45;;
74158;SDS011;62511;47.970;11.774;2022-08-07T04:13:52;4.25;;;2.58;;
74158;SDS011;62511;47.970;11.774;2022-08-07T04:16:19;2.83;;;2.25;;
74158;SDS011;62511;47.970;11.774;2022-08-07T04:18:45;4.43;;;2.47;;
74158;SDS011;62511;47.970;11.774;2022-08-07T04:21:11;4.50;;;3.08;;
74158;SDS011;62511;47.970;11.774;2022-08-07T04:23:37;5.70;;;2.60;;
74158;SDS011;62511;47.970;11.774;2022-08-07T04:26:05;3.88;;;2.70;;
74158;SDS011;62511;47.970;11.774;2022-08-07T04:28:33;3.17;;;2.58;;
74158;SDS011;62511;47.970;11.774;2022-08-07T04:30:59;3.95;;;2.40;;
74158;SDS011;62511;47.970;11.774;2022-08-07T04:33:25;4.25;;;3.10;;
74158;SDS011;62511;47.970;11.774;2022-08-07T04:35:52;4.28;;;2.80;;
74158;SDS011;62511;47.970;11.774;2022-08-07T04:38:18;4.47;;;3.00;;
74158;SDS011;62511;47.970;11.774;2022-08-07T04:40:45;5.90;;;3.03;;
74158;SDS011;62511;47.970;11.774;2022-08-07T04:43:13;4.20;;;3.13;;
74158;SDS011;62511;47.970;11.774;2022-08-07T04:51:07;3.10;;;2.53;;
74158;SDS011;62511;47.970;11.774;2022-08-07T04:53:45;4.70;;;2.85;;
74158;SDS011;62511;47.970;11.774;2022-08-07T04:58:47;4.18;;;2.58;;
74158;SDS011;62511;47.970;11.774;2022-08-07T05:04:17;4.22;;;2.70;;
74158;SDS011;62511;47.970;11.774;2022-08-07T05:09:33;3.33;;;2.65;;
74158;SDS011;62511;47.970;11.774;2022-08-07T05:12:02;3.42;;;2.70;;
74158;SDS011;62511;47.970;11.774;2022-08-07T05:16:56;6.80;;;2.80;;
74158;SDS011;62511;47.970;11.774;2022-08-07T05:19:23;3.83;;;2.50;;
74158;SDS011;62511;47.970;11.774;2022-08-07T05:21:54;3.53;;;2.80;;
74158;SDS011;62511;47.970;11.774;2022-08-07T05:24:21;2.55;;;2.35;;
74158;SDS011;62511;47.970;11.774;2022-08-07T05:26:48;3.20;;;2.28;;
74158;SDS011;62511;47.970;11.774;2022-08-07T05:29:15;2.45;;;2.00;;
74158;SDS011;62511;47.970;11.774;2022-08-07T05:31:42;3.75;;;2.45;;
74158;SDS011;62511;47.970;11.774;2022-08-07T05:34:09;3.53;;;2.33;;
74158;SDS011;62511;47.970;11.774;2022-08-07T05:36:39;3.45;;;2.72;;
74158;SDS011;62511;47.970;11.774;2022-08-07T05:39:06;3.88;;;2.50;;
74158;SDS011;62511;47.970;11.774;2022-08-07T05:41:33;3.63;;;2.53;;
74158;SDS011;62511;47.970;11.774;2022-08-07T05:44:00;2.90;;;2.47;;
74158;SDS011;62511;47.970;11.774;2022-08-07T05:46:26;3.92;;;2.85;;
74158;SDS011;62511;47.970;11.774;2022-08-07T05:48:52;3.65;;;2.75;;
74158;SDS011;62511;47.970;11.774;2022-08-07T05:51:19;2.90;;;2.42;;
74158;SDS011;62511;47.970;11.774;2022-08-07T05:53:46;6.47;;;2.80;;
74158;SDS011;62511;47.970;11.774;2022-08-07T05:56:12;4.30;;;2.53;;
74158;SDS011;62511;47.970;11.774;2022-08-07T05:58:40;3.67;;;2.38;;
74158;SDS011;62511;47.970;11.774;2022-08-07T06:01:08;2.53;;;2.25;;
74158;SDS011;62511;47.970;11.774;2022-08-07T06:03:35;3.40;;;2.25;;
74158;SDS011;62511;47.970;11.774;2022-08-07T06:06:01;4.35;;;2.40;;
74158;SDS011;62511;47.970;11.774;2022-08-07T06:08:27;2.83;;;2.33;;
74158;SDS011;62511;47.970;11.774;2022-08-07T06:10:53;3.25;;;2.30;;
74158;SDS011;62511;47.970;11.774;2022-08-07T06:13:19;2.63;;;2.42;;
74158;SDS011;62511;47.970;11.774;2022-08-07T06:15:47;2.60;;;2.40;;
74158;SDS011;62511;47.970;11.774;2022-08-07T06:18:13;4.57;;;2.63;;
74158;SDS011;62511;47.970;11.774;2022-08-07T06:20:41;3.33;;;2.42;;
74158;SDS011;62511;47.970;11.774;2022-08-07T06:23:08;5.60;;;2.55;;
74158;SDS011;62511;47.970;11.774;2022-08-07T06:25:36;3.70;;;2.50;;
74158;SDS011;62511;47.970;11.774;2022-08-07T06:28:05;3.58;;;2.10;;
74158;SDS011;62511;47.970;11.774;2022-08-07T06:32:57;3.10;;;2.10;;
74158;SDS011;62511;47.970;11.774;2022-08-07T06:35:23;4.05;;;2.05;;
74158;SDS011;62511;47.970;11.774;2022-08-07T06:37:49;4.28;;;2.33;;
74158;SDS011;62511;47.970;11.774;2022-08-07T06:40:15;3.13;;;2.10;;
74158;SDS011;62511;47.970;11.774;2022-08-07T06:42:42;2.22;;;1.90;;
74158;SDS011;62511;47.970;11.774;2022-08-07T06:45:10;3.92;;;2.28;;
74158;SDS011;62511;47.970;11.774;2022-08-07T06:47:37;3.20;;;1.95;;
74158;SDS011;62511;47.970;11.774;2022-08-07T06:50:04;2.88;;;2.13;;
74158;SDS011;62511;47.970;11.774;2022-08-07T06:52:32;3.13;;;2.20;;
74158;SDS011;62511;47.970;11.774;2022-08-07T06:54:59;2.67;;;2.13;;
74158;SDS011;62511;47.970;11.774;2022-08-07T06:57:26;2.47;;;2.28;;
74158;SDS011;62511;47.970;11.774;2022-08-07T06:59:54;3.03;;;2.20;;
74158;SDS011;62511;47.970;11.774;2022-08-07T07:02:21;4.00;;;2.60;;
74158;SDS011;62511;47.970;11.774;2022-08-07T07:04:47;3.50;;;2.40;;
74158;SDS011;62511;47.970;11.774;2022-08-07T07:07:13;4.53;;;2.10;;
74158;SDS011;62511;47.970;11.774;2022-08-07T07:09:43;3.78;;;2.30;;
74158;SDS011;62511;47.970;11.774;2022-08-07T07:12:34;2.92;;;2.13;;
74158;SDS011;62511;47.970;11.774;2022-08-07T07:15:15;3.63;;;2.10;;
74158;SDS011;62511;47.970;11.774;2022-08-07T07:20:21;3.28;;;2.22;;
74158;SDS011;62511;47.970;11.774;2022-08-07T07:22:48;3.67;;;2.60;;
74158;SDS011;62511;47.970;11.774;2022-08-07T07:25:15;3.60;;;2.28;;
74158;SDS011;62511;47.970;11.774;2022-08-07T07:27:50;4.55;;;2.60;;
74158;SDS011;62511;47.970;11.774;2022-08-07T07:30:17;3.80;;;2.30;;
74158;SDS011;62511;47.970;11.774;2022-08-07T07:32:43;3.08;;;2.60;;
74158;SDS011;62511;47.970;11.774;2022-08-07T07:35:10;5.68;;;2.75;;
74158;SDS011;62511;47.970;11.774;2022-08-07T07:40:04;3.75;;;2.50;;
74158;SDS011;62511;47.970;11.774;2022-08-07T07:42:31;3.60;;;2.83;;
74158;SDS011;62511;47.970;11.774;2022-08-07T07:45:01;3.67;;;3.10;;
74158;SDS011;62511;47.970;11.774;2022-08-07T07:47:29;3.35;;;2.72;;
74158;SDS011;62511;47.970;11.774;2022-08-07T07:49:56;3.53;;;3.00;;
74158;SDS011;62511;47.970;11.774;2022-08-07T07:54:49;5.32;;;2.90;;
74158;SDS011;62511;47.970;11.774;2022-08-07T07:57:16;4.75;;;3.13;;
74158;SDS011;62511;47.970;11.774;2022-08-07T07:59:44;4.05;;;2.40;;
74158;SDS011;62511;47.970;11.774;2022-08-07T08:02:11;4.05;;;2.55;;
74158;SDS011;62511;47.970;11.774;2022-08-07T08:04:39;3.42;;;2.35;;
74158;SDS011;62511;47.970;11.774;2022-08-07T08:07:07;4.28;;;2.40;;
74158;SDS011;62511;47.970;11.774;2022-08-07T08:09:33;3.05;;;2.38;;
74158;SDS011;62511;47.970;11.774;2022-08-07T08:11:59;3.45;;;2.30;;
74158;SDS011;62511;47.970;11.774;2022-08-07T08:14:28;3.72;;;2.97;;
74158;SDS011;62511;47.970;11.774;2022-08-07T08:16:54;4.43;;;2.75;;
74158;SDS011;62511;47.970;11.774;2022-08-07T08:19:24;3.28;;;2.72;;
74158;SDS011;62511;47.970;11.774;2022-08-07T08:21:52;4.35;;;2.72;;
74158;SDS011;62511;47.970;11.774;2022-08-07T08:24:38;2.70;;;2.40;;
74158;SDS011;62511;47.970;11.774;2022-08-07T08:27:25;3.58;;;3.10;;
74158;SDS011;62511;47.970;11.774;2022-08-07T08:29:56;3.53;;;2.83;;
74158;SDS011;62511;47.970;11.774;2022-08-07T08:32:24;3.22;;;2.65;;
74158;SDS011;62511;47.970;11.774;2022-08-07T08:34:50;2.53;;;2.33;;
74158;SDS011;62511;47.970;11.774;2022-08-07T08:37:17;6.22;;;2.70;;
74158;SDS011;62511;47.970;11.774;2022-08-07T08:39:44;3.47;;;2.97;;
74158;SDS011;62511;47.970;11.774;2022-08-07T08:42:12;4.07;;;2.63;;
74158;SDS011;62511;47.970;11.774;2022-08-07T08:44:53;5.32;;;2.80;;
74158;SDS011;62511;47.970;11.774;2022-08-07T08:47:39;4.18;;;2.40;;
74158;SDS011;62511;47.970;11.774;2022-08-07T08:50:16;4.82;;;2.75;;
74158;SDS011;62511;47.970;11.774;2022-08-07T08:53:04;5.00;;;2.13;;
74158;SDS011;62511;47.970;11.774;2022-08-07T08:55:36;3.15;;;2.38;;
74158;SDS011;62511;47.970;11.774;2022-08-07T08:58:10;3.00;;;2.47;;
74158;SDS011;62511;47.970;11.774;2022-08-07T09:00:41;4.55;;;2.42;;
74158;SDS011;62511;47.970;11.774;2022-08-07T09:05:42;2.80;;;2.45;;
74158;SDS011;62511;47.970;11.774;2022-08-07T09:08:54;2.85;;;2.33;;
74158;SDS011;62511;47.970;11.774;2022-08-07T09:11:17;2.97;;;2.65;;
74158;SDS011;62511;47.970;11.774;2022-08-07T09:21:34;3.58;;;2.22;;
74158;SDS011;62511;47.970;11.774;2022-08-07T09:24:04;3.40;;;2.45;;
74158;SDS011;62511;47.970;11.774;2022-08-07T09:26:41;3.58;;;2.20;;
74158;SDS011;62511;47.970;11.774;2022-08-07T09:31:55;2.60;;;2.05;;
74158;SDS011;62511;47.970;11.774;2022-08-07T09:34:28;4.20;;;2.45;;
74158;SDS011;62511;47.970;11.774;2022-08-07T09:37:06;2.85;;;2.17;;
74158;SDS011;62511;47.970;11.774;2022-08-07T09:39:47;3.42;;;2.20;;
74158;SDS011;62511;47.970;11.774;2022-08-07T09:42:36;3.05;;;2.10;;
74158;SDS011;62511;47.970;11.774;2022-08-07T09:52:55;2.17;;;1.88;;
74158;SDS011;62511;47.970;11.774;2022-08-07T09:55:25;2.85;;;1.95;;
74158;SDS011;62511;47.970;11.774;2022-08-07T10:00:26;2.63;;;1.90;;
74158;SDS011;62511;47.970;11.774;2022-08-07T10:25:53;3.65;;;2.40;;
74158;SDS011;62511;47.970;11.774;2022-08-07T10:38:56;2.83;;;2.00;;
74158;SDS011;62511;47.970;11.774;2022-08-07T10:52:42;3.50;;;2.00;;
74158;SDS011;62511;47.970;11.774;2022-08-07T10:54:53;3.83;;;1.95;;
74158;SDS011;62511;47.970;11.774;2022-08-07T11:00:07;2.90;;;2.13;;
74158;SDS011;62511;47.970;11.774;2022-08-07T11:02:49;4.18;;;2.00;;
74158;SDS011;62511;47.970;11.774;2022-08-07T11:05:34;3.60;;;2.00;;
74158;SDS011;62511;47.970;11.774;2022-08-07T11:16:14;3.03;;;1.90;;
74158;SDS011;62511;47.970;11.774;2022-08-07T11:18:45;2.28;;;1.95;;
74158;SDS011;62511;47.970;11.774;2022-08-07T11:23:52;2.88;;;1.80;;
74158;SDS011;62511;47.970;11.774;2022-08-07T11:28:50;2.20;;;1.90;;
74158;SDS011;62511;47.970;11.774;2022-08-07T11:31:24;3.90;;;2.40;;
74158;SDS011;62511;47.970;11.774;2022-08-07T11:34:03;2.95;;;2.33;;
74158;SDS011;62511;47.970;11.774;2022-08-07T11:36:38;3.75;;;2.55;;
74158;SDS011;62511;47.970;11.774;2022-08-07T11:41:39;2.30;;;1.85;;
74158;SDS011;62511;47.970;11.774;2022-08-07T11:49:08;2.38;;;2.00;;
74158;SDS011;62511;47.970;11.774;2022-08-07T11:57:12;2.83;;;2.05;;
74158;SDS011;62511;47.970;11.774;2022-08-07T12:07:33;3.20;;;1.92;;
74158;SDS011;62511;47.970;11.774;2022-08-07T12:10:05;2.53;;;1.80;;
74158;SDS011;62511;47.970;11.774;2022-08-07T12:12:43;3.05;;;1.95;;
74158;SDS011;62511;47.970;11.774;2022-08-07T12:15:13;2.50;;;1.90;;
74158;SDS011;62511;47.970;11.774;2022-08-07T12:25:35;2.00;;;1.70;;
74158;SDS011;62511;47.970;11.774;2022-08-07T12:28:40;2.45;;;1.70;;
74158;SDS011;62511;47.970;11.774;2022-08-07T12:31:10;2.42;;;1.90;;
74158;SDS011;62511;47.970;11.774;2022-08-07T12:33:37;2.50;;;2.30;;
74158;SDS011;62511;47.970;11.774;2022-08-07T12:36:04;1.92;;;1.73;;
74158;SDS011;62511;47.970;11.774;2022-08-07T12:38:31;2.05;;;1.70;;
74158;SDS011;62511;47.970;11.774;2022-08-07T12:40:58;2.97;;;2.00;;
74158;SDS011;62511;47.970;11.774;2022-08-07T12:43:26;2.00;;;1.65;;
74158;SDS011;62511;47.970;11.774;2022-08-07T12:45:59;2.28;;;1.90;;
74158;SDS011;62511;47.970;11.774;2022-08-07T12:48:41;2.25;;;1.70;;
74158;SDS011;62511;47.970;11.774;2022-08-07T12:51:12;2.65;;;1.90;;
74158;SDS011;62511;47.970;11.774;2022-08-07T12:58:39;2.72;;;1.60;;
74158;SDS011;62511;47.970;11.774;2022-08-07T13:01:11;2.55;;;1.80;;
74158;SDS011;62511;47.970;11.774;2022-08-07T13:06:26;2.50;;;2.10;;
74158;SDS011;62511;47.970;11.774;2022-08-07T13:08:58;4.25;;;1.83;;
74158;SDS011;62511;47.970;11.774;2022-08-07T13:16:43;2.03;;;1.80;;
74158;SDS011;62511;47.970;11.774;2022-08-07T13:19:17;2.90;;;1.60;;
74158;SDS011;62511;47.970;11.774;2022-08-07T13:21:49;2.60;;;1.80;;
74158;SDS011;62511;47.970;11.774;2022-08-07T13:24:18;2.10;;;1.88;;
74158;SDS011;62511;47.970;11.774;2022-08-07T13:26:54;4.13;;;2.00;;
74158;SDS011;62511;47.970;11.774;2022-08-07T13:29:23;2.55;;;1.63;;
74158;SDS011;62511;47.970;11.774;2022-08-07T13:32:00;2.80;;;1.80;;
74158;SDS011;62511;47.970;11.774;2022-08-07T13:34:32;2.10;;;1.73;;
74158;SDS011;62511;47.970;11.774;2022-08-07T13:37:02;2.45;;;1.95;;
74158;SDS011;62511;47.970;11.774;2022-08-07T13:39:34;2.63;;;1.58;;
74158;SDS011;62511;47.970;11.774;2022-08-07T13:42:02;2.30;;;1.70;;
74158;SDS011;62511;47.970;11.774;2022-08-07T13:44:31;3.15;;;1.95;;
74158;SDS011;62511;47.970;11.774;2022-08-07T13:46:59;2.20;;;1.90;;
74158;SDS011;62511;47.970;11.774;2022-08-07T13:49:31;2.22;;;1.73;;
74158;SDS011;62511;47.970;11.774;2022-08-07T13:52:00;2.88;;;1.67;;
74158;SDS011;62511;47.970;11.774;2022-08-07T13:54:28;1.60;;;1.45;;
74158;SDS011;62511;47.970;11.774;2022-08-07T13:56:56;1.60;;;1.50;;
74158;SDS011;62511;47.970;11.774;2022-08-07T13:59:28;1.80;;;1.70;;
74158;SDS011;62511;47.970;11.774;2022-08-07T14:01:59;3.10;;;1.77;;
74158;SDS011;62511;47.970;11.774;2022-08-07T14:04:55;3.13;;;1.40;;
74158;SDS011;62511;47.970;11.774;2022-08-07T14:07:22;3.45;;;1.60;;
74158;SDS011;62511;47.970;11.774;2022-08-07T14:09:52;2.70;;;1.48;;
74158;SDS011;62511;47.970;11.774;2022-08-07T14:15:04;3.65;;;1.65;;
74158;SDS011;62511;47.970;11.774;2022-08-07T14:17:33;1.52;;;1.42;;
74158;SDS011;62511;47.970;11.774;2022-08-07T14:20:13;2.95;;;1.90;;
74158;SDS011;62511;47.970;11.774;2022-08-07T14:22:42;2.13;;;1.92;;
74158;SDS011;62511;47.970;11.774;2022-08-07T14:25:12;1.90;;;1.42;;
74158;SDS011;62511;47.970;11.774;2022-08-07T14:27:42;1.75;;;1.58;;
74158;SDS011;62511;47.970;11.774;2022-08-07T14:30:10;2.53;;;1.90;;
74158;SDS011;62511;47.970;11.774;2022-08-07T14:32:44;1.60;;;1.50;;
74158;SDS011;62511;47.970;11.774;2022-08-07T14:35:14;5.32;;;1.65;;
74158;SDS011;62511;47.970;11.774;2022-08-07T14:37:42;2.95;;;1.80;;
74158;SDS011;62511;47.970;11.774;2022-08-07T14:40:12;1.70;;;1.58;;
74158;SDS011;62511;47.970;11.774;2022-08-07T14:42:38;2.20;;;1.83;;
74158;SDS011;62511;47.970;11.774;2022-08-07T14:45:04;2.60;;;2.28;;
74158;SDS011;62511;47.970;11.774;2022-08-07T14:47:31;2.35;;;2.10;;
74158;SDS011;62511;47.970;11.774;2022-08-07T14:49:58;2.28;;;1.70;;
74158;SDS011;62511;47.970;11.774;2022-08-07T14:52:25;2.10;;;1.85;;
74158;SDS011;62511;47.970;11.774;2022-08-07T14:54:51;1.88;;;1.65;;
74158;SDS011;62511;47.970;11.774;2022-08-07T14:57:18;5.88;;;2.13;;
74158;SDS011;62511;47.970;11.774;2022-08-07T14:59:45;1.92;;;1.70;;
74158;SDS011;62511;47.970;11.774;2022-08-07T15:02:20;2.67;;;1.85;;
74158;SDS011;62511;47.970;11.774;2022-08-07T15:04:47;2.00;;;1.80;;
74158;SDS011;62511;47.970;11.774;2022-08-07T15:07:19;2.47;;;1.65;;
74158;SDS011;62511;47.970;11.774;2022-08-07T15:09:50;2.60;;;2.30;;
74158;SDS011;62511;47.970;11.774;2022-08-07T15:12:27;3.20;;;2.10;;
74158;SDS011;62511;47.970;11.774;2022-08-07T15:15:05;3.75;;;2.05;;
74158;SDS011;62511;47.970;11.774;2022-08-07T15:17:33;3.10;;;2.08;;
74158;SDS011;62511;47.970;11.774;2022-08-07T15:20:02;2.55;;;2.08;;
74158;SDS011;62511;47.970;11.774;2022-08-07T15:22:30;2.50;;;1.85;;
74158;SDS011;62511;47.970;11.774;2022-08-07T15:24:57;3.67;;;2.10;;
74158;SDS011;62511;47.970;11.774;2022-08-07T15:27:24;3.38;;;1.85;;
74158;SDS011;62511;47.970;11.774;2022-08-07T15:29:53;6.32;;;2.10;;
74158;SDS011;62511;47.970;11.774;2022-08-07T15:32:20;2.83;;;2.10;;
74158;SDS011;62511;47.970;11.774;2022-08-07T15:34:52;2.97;;;2.15;;
74158;SDS011;62511;47.970;11.774;2022-08-07T15:37:21;3.00;;;2.45;;
74158;SDS011;62511;47.970;11.774;2022-08-07T15:39:49;2.17;;;1.98;;
74158;SDS011;62511;47.970;11.774;2022-08-07T15:45:02;3.28;;;2.00;;
74158;SDS011;62511;47.970;11.774;2022-08-07T15:47:31;2.42;;;1.98;;
74158;SDS011;62511;47.970;11.774;2022-08-07T15:49:58;2.72;;;1.92;;
74158;SDS011;62511;47.970;11.774;2022-08-07T15:52:27;4.93;;;2.35;;
74158;SDS011;62511;47.970;11.774;2022-08-07T15:54:54;2.42;;;2.13;;
74158;SDS011;62511;47.970;11.774;2022-08-07T15:59:46;3.67;;;2.58;;
74158;SDS011;62511;47.970;11.774;2022-08-07T16:02:26;4.28;;;2.33;;
74158;SDS011;62511;47.970;11.774;2022-08-07T16:04:57;3.08;;;2.30;;
74158;SDS011;62511;47.970;11.774;2022-08-07T16:07:28;2.45;;;1.92;;
74158;SDS011;62511;47.970;11.774;2022-08-07T16:10:07;4.25;;;2.00;;
74158;SDS011;62511;47.970;11.774;2022-08-07T16:17:47;3.05;;;1.83;;
74158;SDS011;62511;47.970;11.774;2022-08-07T16:20:28;4.00;;;2.17;;
74158;SDS011;62511;47.970;11.774;2022-08-07T16:30:40;2.38;;;2.17;;
74158;SDS011;62511;47.970;11.774;2022-08-07T16:35:37;2.47;;;1.95;;
74158;SDS011;62511;47.970;11.774;2022-08-07T16:38:15;4.40;;;1.92;;
74158;SDS011;62511;47.970;11.774;2022-08-07T16:51:43;2.95;;;2.30;;
74158;SDS011;62511;47.970;11.774;2022-08-07T17:01:50;2.42;;;2.03;;
74158;SDS011;62511;47.970;11.774;2022-08-07T17:04:34;2.38;;;2.00;;
74158;SDS011;62511;47.970;11.774;2022-08-07T17:07:08;2.45;;;2.10;;
74158;SDS011;62511;47.970;11.774;2022-08-07T17:15:15;3.78;;;2.00;;
74158;SDS011;62511;47.970;11.774;2022-08-07T17:20:24;2.50;;;2.05;;
74158;SDS011;62511;47.970;11.774;2022-08-07T17:22:56;3.15;;;2.08;;
74158;SDS011;62511;47.970;11.774;2022-08-07T17:25:28;2.17;;;1.88;;
74158;SDS011;62511;47.970;11.774;2022-08-07T17:28:41;3.63;;;2.00;;
74158;SDS011;62511;47.970;11.774;2022-08-07T17:30:59;2.80;;;2.10;;
74158;SDS011;62511;47.970;11.774;2022-08-07T17:33:30;2.55;;;2.00;;
74158;SDS011;62511;47.970;11.774;2022-08-07T17:36:04;2.60;;;1.73;;
74158;SDS011;62511;47.970;11.774;2022-08-07T17:43:33;4.63;;;2.50;;
74158;SDS011;62511;47.970;11.774;2022-08-07T17:46:16;2.47;;;1.67;;
74158;SDS011;62511;47.970;11.774;2022-08-07T17:51:17;3.08;;;2.03;;
74158;SDS011;62511;47.970;11.774;2022-08-07T17:53:56;2.75;;;2.00;;
74158;SDS011;62511;47.970;11.774;2022-08-07T18:01:43;2.22;;;2.03;;
74158;SDS011;62511;47.970;11.774;2022-08-07T18:08:59;5.20;;;2.83;;
74158;SDS011;62511;47.970;11.774;2022-08-07T18:24:41;2.35;;;2.10;;
74158;SDS011;62511;47.970;11.774;2022-08-07T18:32:17;3.40;;;1.83;;
74158;SDS011;62511;47.970;11.774;2022-08-07T18:34:57;2.20;;;1.83;;
74158;SDS011;62511;47.970;11.774;2022-08-07T18:40:26;2.50;;;2.10;;
74158;SDS011;62511;47.970;11.774;2022-08-07T18:45:26;3.15;;;2.30;;
74158;SDS011;62511;47.970;11.774;2022-08-07T18:48:02;2.60;;;2.40;;
74158;SDS011;62511;47.970;11.774;2022-08-07T18:56:13;3.67;;;2.70;;
74158;SDS011;62511;47.970;11.774;2022-08-07T19:06:15;4.43;;;2.15;;
74158;SDS011;62511;47.970;11.774;2022-08-07T19:08:43;3.00;;;2.20;;
74158;SDS011;62511;47.970;11.774;2022-08-07T19:11:14;2.90;;;2.40;;
74158;SDS011;62511;47.970;11.774;2022-08-07T19:18:56;2.60;;;2.40;;
74158;SDS011;62511;47.970;11.774;2022-08-07T19:21:29;2.92;;;2.30;;
74158;SDS011;62511;47.970;11.774;2022-08-07T19:23:57;3.47;;;2.20;;
74158;SDS011;62511;47.970;11.774;2022-08-07T19:26:27;3.78;;;1.98;;
74158;SDS011;62511;47.970;11.774;2022-08-07T19:28:54;2.53;;;2.33;;